Impacts TAF Board INFO
FOR SITUATIONAL AWARENESS. NOT TO BE USED FOR FLIGHT PLANNING PURPOSES.
IDs:

KLAS - Las Vegas/McCarran I, NV, US

Issued at 1720 UTC 17 Jan 2018
Updated at 1800 UTC 17 Jan 2018
Potential Impact None Slight Moderate High
Time1756Z 17/18Z 17/19Z 17/20Z 17/21Z 17/22Z 17/23Z 18/00Z 18/01Z 18/02Z 18/03Z 18/04Z 18/05Z 18/06Z>>
Type OBS PRVL PRVL PRVL PRVL PRVL PRVL PRVL PRVL PRVL PRVL PRVL PRVL PRVL
VIS 10 >6 >6 >6 >6 >6 >6 >6 >6 >6 >6 >6 >6 >6
CIG -- -- -- -- -- -- -- -- -- -- -- -- -- --
Cover SCT SCT SCT SCT SCT SCT SCT SCT SCT SCT SCT SCT SCT SCT
FltCat VFR VFR VFR VFR VFR VFR VFR VFR VFR VFR VFR VFR VFR VFR
WX -- -- -- -- -- -- -- -- -- -- -- -- -- --
WDir 10 VRB VRB VRB VRB VRB VRB VRB VRB 210 210 210 210 210
WSpd 3 4 4 4 4 4 4 4 4 5 5 5 5 5
WGst -- -- -- -- -- -- -- -- -- -- -- -- -- --

Raw TAF
KLAS 171720Z 1718/1824 VRB04KT P6SM SCT250
  FM180200 21005KT P6SM SCT250


Raw METAR
KLAS 171756Z 01003KT 10SM SCT240 14/02 A3033 RMK AO2 SLP265 T01440022 10144 20078 51019
KLAS 171656Z 00000KT 10SM BKN240 12/03 A3032 RMK AO2 SLP262 T01220028
KLAS 171556Z 21003KT 10SM BKN250 10/03 A3029 RMK AO2 SLP254 T01000028
KLAS 171456Z 23003KT 10SM SCT250 08/02 A3027 RMK AO2 SLP246 T00830022 53013

METAR Board
Radar Display
Forecast Discussion

FOR SITUATIONAL AWARENESS. NOT TO BE USED FOR FLIGHT PLANNING PURPOSES.